Time;durP1;ratioP1;P1;durP2;ratioP2;P2;SDS_P1;SDS_P2;PMS_P1;PMS_P2;Temp;Humidity;BMP_temperature;BMP_pressure;BME280_temperature;BME280_humidity;BME280_pressure;Samples;Min_cycle;Max_cycle;Signal;HPM_P1;HPM_P2
2022/03/05 00:00:20;;;;;;;27.38;13.38;;;;;;;2.24;100.00;102197.38;5073479;28;20036;-29
2022/03/05 00:02:47;;;;;;;24.17;13.48;;;;;;;2.23;100.00;102190.19;5072471;28;20036;-30
2022/03/05 00:05:16;;;;;;;23.85;13.18;;;;;;;2.20;100.00;102191.44;5071260;28;20120;-28
2022/03/05 00:07:43;;;;;;;25.20;13.25;;;;;;;2.17;100.00;102197.41;5071488;28;20052;-31
2022/03/05 00:10:12;;;;;;;24.92;13.18;;;;;;;2.18;100.00;102206.50;5070496;28;20051;-26
2022/03/05 00:12:40;;;;;;;26.60;14.55;;;;;;;2.16;100.00;102211.38;5071043;28;20040;-28
2022/03/05 00:15:08;;;;;;;23.80;12.77;;;;;;;2.13;100.00;102209.88;5071148;28;20041;-28
2022/03/05 00:17:36;;;;;;;24.38;12.90;;;;;;;2.12;100.00;102208.19;5070447;28;20544;-30
2022/03/05 00:20:05;;;;;;;24.73;13.45;;;;;;;2.12;100.00;102216.47;5072592;28;20489;-29
2022/03/05 00:22:33;;;;;;;24.52;13.18;;;;;;;2.10;100.00;102221.31;5073115;28;20044;-26
2022/03/05 00:25:01;;;;;;;21.17;12.02;;;;;;;2.07;100.00;102217.09;5072286;28;20052;-28
2022/03/05 00:27:30;;;;;;;22.85;11.75;;;;;;;2.05;100.00;102218.34;5072840;28;20045;-34
2022/03/05 00:29:58;;;;;;;25.67;13.13;;;;;;;2.01;100.00;102219.81;5071174;28;20142;-29
2022/03/05 00:32:26;;;;;;;25.20;12.95;;;;;;;1.99;100.00;102224.72;5072155;28;20047;-29
2022/03/05 00:34:54;;;;;;;22.38;12.68;;;;;;;1.97;100.00;102230.41;5073028;28;20044;-33
2022/03/05 00:37:22;;;;;;;24.20;12.65;;;;;;;1.97;100.00;102229.56;5072007;28;20055;-29
2022/03/05 00:39:50;;;;;;;24.83;13.45;;;;;;;1.94;100.00;102235.50;5072888;28;20415;-28
2022/03/05 00:42:17;;;;;;;23.20;13.02;;;;;;;1.91;100.00;102230.41;5070957;28;20050;-29
2022/03/05 00:44:46;;;;;;;22.88;11.70;;;;;;;1.89;100.00;102236.09;5071867;28;20132;-30
2022/03/05 00:47:16;;;;;;;23.27;12.43;;;;;;;1.87;100.00;102240.13;5072555;28;20052;-27
2022/03/05 00:49:43;;;;;;;21.65;12.45;;;;;;;1.84;100.00;102241.38;5071788;28;20040;-28
2022/03/05 00:52:11;;;;;;;22.20;12.73;;;;;;;1.81;100.00;102240.94;5071732;28;20094;-30
2022/03/05 00:54:39;;;;;;;21.00;12.32;;;;;;;1.79;100.00;102243.06;5072340;28;20066;-30
2022/03/05 00:57:08;;;;;;;23.50;12.23;;;;;;;1.75;100.00;102252.78;5072282;28;20143;-30
2022/03/05 00:59:36;;;;;;;22.50;12.65;;;;;;;1.73;100.00;102250.25;5071610;28;20391;-29
2022/03/05 01:02:05;;;;;;;20.02;11.57;;;;;;;1.70;100.00;102251.50;5072178;28;20558;-26
2022/03/05 01:04:33;;;;;;;24.52;12.55;;;;;;;1.66;100.00;102252.97;5072347;28;20121;-28
2022/03/05 01:07:01;;;;;;;22.77;12.60;;;;;;;1.62;100.00;102246.19;5071360;28;20048;-26
2022/03/05 01:09:29;;;;;;;25.27;13.30;;;;;;;1.59;100.00;102245.75;5072056;28;20036;-29
2022/03/05 01:11:56;;;;;;;23.23;12.23;;;;;;;1.55;100.00;102244.47;5072002;28;20516;-29
2022/03/05 01:14:24;;;;;;;23.52;12.32;;;;;;;1.54;100.00;102251.03;5071232;28;20528;-30
2022/03/05 01:16:52;;;;;;;23.65;12.57;;;;;;;1.53;100.00;102249.31;5071829;28;20524;-28
2022/03/05 01:19:21;;;;;;;19.80;10.57;;;;;;;1.51;100.00;102260.53;5071806;28;20048;-27
2022/03/05 01:21:49;;;;;;;19.17;10.43;;;;;;;1.50;100.00;102258.00;5070202;28;20532;-28
2022/03/05 01:24:17;;;;;;;17.65;10.32;;;;;;;1.48;100.00;102249.94;5069860;28;20393;-29
2022/03/05 01:26:45;;;;;;;23.13;11.05;;;;;;;1.46;100.00;102260.28;5069196;28;20049;-28
2022/03/05 01:29:12;;;;;;;19.48;10.82;;;;;;;1.44;100.00;102261.53;5069855;28;20098;-28
2022/03/05 01:31:40;;;;;;;19.63;10.45;;;;;;;1.41;100.00;102268.31;5058905;28;20048;-30
2022/03/05 01:34:08;;;;;;;21.27;11.35;;;;;;;1.39;100.00;102270.44;5069013;28;20119;-30
2022/03/05 01:36:37;;;;;;;20.00;10.93;;;;;;;1.34;100.00;102254.53;5069681;28;20056;-31
2022/03/05 01:39:05;;;;;;;21.05;11.48;;;;;;;1.32;100.00;102258.53;5070677;28;20076;-34
2022/03/05 01:41:33;;;;;;;22.60;11.38;;;;;;;1.31;100.00;102265.94;5069270;28;20059;-26
2022/03/05 01:44:01;;;;;;;19.88;11.27;;;;;;;1.27;100.00;102258.28;5071569;28;20494;-29
2022/03/05 01:46:31;;;;;;;24.65;13.50;;;;;;;1.24;100.00;102266.94;5071275;28;20045;-29
2022/03/05 01:48:59;;;;;;;27.98;14.02;;;;;;;1.21;100.00;102270.09;5070960;28;20044;-26
2022/03/05 01:51:27;;;;;;;25.45;13.25;;;;;;;1.18;100.00;102259.53;5071363;28;20048;-29
2022/03/05 01:53:57;;;;;;;24.60;13.02;;;;;;;1.12;100.00;102260.34;5071731;28;20409;-26
2022/03/05 01:56:26;;;;;;;24.17;12.95;;;;;;;1.10;100.00;102260.53;5070929;28;20060;-31
2022/03/05 01:58:54;;;;;;;23.80;12.43;;;;;;;1.07;100.00;102258.19;5062784;28;20046;-30
2022/03/05 02:01:23;;;;;;;23.42;13.20;;;;;;;1.05;100.00;102254.78;5071586;28;20402;-34
2022/03/05 02:03:52;;;;;;;23.52;12.00;;;;;;;1.04;100.00;102250.34;5070968;28;20048;-32
2022/03/05 02:06:21;;;;;;;23.42;12.60;;;;;;;0.99;100.00;102250.97;5071326;28;20521;-28
2022/03/05 02:08:48;;;;;;;26.00;13.75;;;;;;;0.99;100.00;102250.13;5070542;28;20417;-28
2022/03/05 02:11:17;;;;;;;26.80;14.32;;;;;;;0.97;100.00;102246.72;5071615;28;20052;-32
2022/03/05 02:13:45;;;;;;;24.67;12.57;;;;;;;0.95;100.00;102244.16;5071098;28;20505;-31
2022/03/05 02:16:13;;;;;;;27.52;13.73;;;;;;;0.91;100.00;102240.13;5070414;28;20421;-34
2022/03/05 02:18:45;;;;;;;24.42;13.52;;;;;;;0.90;100.00;102243.06;5071607;28;20059;-29
2022/03/05 02:21:15;;;;;;;26.70;13.43;;;;;;;0.87;100.00;102238.81;5071470;28;20049;-30
2022/03/05 02:23:43;;;;;;;27.13;13.95;;;;;;;0.84;100.00;102239.22;5070467;28;20046;-37
2022/03/05 02:26:11;;;;;;;23.02;12.98;;;;;;;0.83;100.00;102226.53;5071191;28;20048;-31
2022/03/05 02:28:39;;;;;;;25.73;13.88;;;;;;;0.80;100.00;102234.34;5071052;28;20045;-29
2022/03/05 02:31:08;;;;;;;27.95;13.63;;;;;;;0.78;100.00;102233.69;5069141;28;20451;-28
2022/03/05 02:33:36;;;;;;;20.95;11.50;;;;;;;0.76;100.00;102230.31;5071517;28;20048;-29
2022/03/05 02:36:04;;;;;;;21.42;11.30;;;;;;;0.73;100.00;102231.56;5070898;28;20051;-30
2022/03/05 02:38:34;;;;;;;26.15;12.98;;;;;;;0.71;100.00;102230.91;5070736;28;20052;-29
2022/03/05 02:41:02;;;;;;;25.42;13.45;;;;;;;0.67;100.00;102237.84;5070972;28;20056;-31
2022/03/05 02:43:30;;;;;;;23.80;12.70;;;;;;;0.62;100.00;102235.69;5069945;28;20037;-26
2022/03/05 02:45:58;;;;;;;25.98;13.50;;;;;;;0.57;100.00;102226.38;5070548;28;20127;-26
2022/03/05 02:48:26;;;;;;;25.80;13.70;;;;;;;0.52;100.00;102229.72;5070978;28;20128;-29
2022/03/05 02:50:54;;;;;;;28.17;13.85;;;;;;;0.50;100.00;102228.19;5070361;28;20048;-28
2022/03/05 02:53:22;;;;;;;28.13;13.50;;;;;;;0.46;100.00;102238.72;5074701;28;20064;-31
2022/03/05 02:55:51;;;;;;;20.80;11.10;;;;;;;0.44;100.00;102232.59;5074606;28;20041;-30
2022/03/05 02:58:19;;;;;;;27.65;14.35;;;;;;;0.42;100.00;102240.16;5074119;28;20045;-27
2022/03/05 03:00:46;;;;;;;27.55;13.68;;;;;;;0.41;100.00;102248.59;5074750;28;20036;-29
2022/03/05 03:03:14;;;;;;;24.95;13.15;;;;;;;0.37;100.00;102230.84;5074696;28;20101;-31
2022/03/05 03:05:42;;;;;;;24.38;13.07;;;;;;;0.32;100.00;102225.94;5073607;28;20044;-29
2022/03/05 03:08:10;;;;;;;28.40;14.23;;;;;;;0.30;100.00;102228.88;5074408;28;20045;-28
2022/03/05 03:10:38;;;;;;;25.75;13.35;;;;;;;0.28;100.00;102232.88;5074813;28;20135;-29
2022/03/05 03:13:07;;;;;;;28.40;14.77;;;;;;;0.25;100.00;102230.53;5073767;28;20044;-29
2022/03/05 03:15:35;;;;;;;27.77;13.90;;;;;;;0.21;100.00;102232.81;5074487;28;20051;-29
2022/03/05 03:18:02;;;;;;;28.08;14.30;;;;;;;0.17;100.00;102230.69;5074222;28;20036;-31
2022/03/05 03:20:30;;;;;;;29.25;14.88;;;;;;;0.16;100.00;102226.22;5073548;28;20052;-28
2022/03/05 03:22:59;;;;;;;24.80;12.10;;;;;;;0.11;100.00;102225.97;5070857;28;20097;-33
2022/03/05 03:25:27;;;;;;;29.50;14.27;;;;;;;0.09;100.00;102223.41;5074250;28;20516;-30
2022/03/05 03:27:54;;;;;;;26.48;13.57;;;;;;;0.07;100.00;102225.50;5073305;28;20032;-27
2022/03/05 03:30:24;;;;;;;28.20;14.45;;;;;;;0.05;100.00;102221.25;5074284;28;20090;-28
2022/03/05 03:32:52;;;;;;;28.60;14.55;;;;;;;0.02;100.00;102217.00;5073720;28;20052;-28
2022/03/05 03:35:19;;;;;;;25.45;12.82;;;;;;;-0.01;100.00;102225.66;5073136;28;20047;-26
2022/03/05 03:37:47;;;;;;;26.25;13.38;;;;;;;-0.01;100.00;102222.91;5074200;28;20475;-29
2022/03/05 03:40:17;;;;;;;25.35;12.70;;;;;;;-0.04;100.00;102218.66;5073409;28;20048;-29
2022/03/05 03:42:46;;;;;;;31.15;14.45;;;;;;;-0.06;100.00;102220.75;5073847;28;20049;-31
2022/03/05 03:45:15;;;;;;;28.10;13.82;;;;;;;-0.08;100.00;102216.50;5073636;28;20501;-30
2022/03/05 03:47:48;;;;;;;30.63;14.95;;;;;;;-0.11;100.00;102212.25;5072995;28;20055;-30
2022/03/05 03:50:18;;;;;;;26.00;14.00;;;;;;;-0.12;100.00;102213.28;5073750;28;20052;-31
2022/03/05 03:52:46;;;;;;;26.30;13.45;;;;;;;-0.13;100.00;102214.34;5073806;28;20052;-28
2022/03/05 03:55:20;;;;;;;27.40;13.75;;;;;;;-0.14;100.00;102212.63;5072963;28;20055;-34
2022/03/05 03:57:48;;;;;;;26.10;13.60;;;;;;;-0.16;100.00;102211.97;5074097;28;20139;-29
2022/03/05 04:00:18;;;;;;;27.02;13.55;;;;;;;-0.21;100.00;102211.75;5073507;28;20040;-34
2022/03/05 04:02:48;;;;;;;25.80;13.52;;;;;;;-0.21;100.00;102208.16;5072552;28;20054;-35
2022/03/05 04:05:16;;;;;;;28.63;13.80;;;;;;;-0.21;100.00;102210.88;5072976;28;20058;-30
2022/03/05 04:10:29;;;;;;;30.05;14.15;;;;;;;-0.28;100.00;102199.00;5072610;28;20041;-28
2022/03/05 04:12:56;;;;;;;31.70;15.00;;;;;;;-0.29;100.00;102202.78;5073176;28;20094;-30
2022/03/05 04:15:24;;;;;;;29.55;13.98;;;;;;;-0.30;100.00;102204.66;5072366;28;20040;-29
2022/03/05 04:17:53;;;;;;;29.13;14.85;;;;;;;-0.31;100.00;102196.63;5073311;28;20469;-27
2022/03/05 04:20:21;;;;;;;27.92;14.10;;;;;;;-0.31;100.00;102211.19;5073167;28;20049;-30
2022/03/05 04:22:49;;;;;;;29.25;13.75;;;;;;;-0.32;100.00;102212.22;5072489;28;20048;-32
2022/03/05 04:25:17;;;;;;;27.33;12.75;;;;;;;-0.31;100.00;102213.94;5072932;28;20041;-26
2022/03/05 04:27:45;;;;;;;29.27;13.95;;;;;;;-0.31;100.00;102215.81;5072965;28;20052;-29
2022/03/05 04:30:13;;;;;;;27.83;13.65;;;;;;;-0.31;100.00;102219.41;5068714;28;20151;-29
2022/03/05 04:32:41;;;;;;;27.15;14.00;;;;;;;-0.31;100.00;102210.34;5071781;28;20121;-29
2022/03/05 04:35:11;;;;;;;27.80;12.93;;;;;;;-0.30;100.00;102206.56;5072853;28;20511;-29
2022/03/05 04:37:39;;;;;;;27.27;13.10;;;;;;;-0.32;100.00;102212.22;5072291;28;20059;-30
2022/03/05 04:40:08;;;;;;;26.23;12.68;;;;;;;-0.31;100.00;102207.59;5072275;28;20048;-29
2022/03/05 04:42:36;;;;;;;24.42;12.30;;;;;;;-0.30;100.00;102217.53;5069177;28;20071;-33
2022/03/05 04:45:05;;;;;;;24.95;12.45;;;;;;;-0.28;100.00;102209.97;5071874;28;20044;-29
2022/03/05 04:47:33;;;;;;;24.27;11.98;;;;;;;-0.28;100.00;102220.94;5072414;28;20509;-28
2022/03/05 04:50:00;;;;;;;23.77;11.32;;;;;;;-0.28;100.00;102220.94;5072652;28;20051;-27
2022/03/05 04:52:30;;;;;;;23.55;11.90;;;;;;;-0.29;100.00;102209.09;5070200;28;20059;-30
2022/03/05 04:54:57;;;;;;;20.90;10.15;;;;;;;-0.28;100.00;102226.41;5072628;28;20055;-30
2022/03/05 04:57:25;;;;;;;22.75;11.45;;;;;;;-0.28;100.00;102215.44;5072243;28;20496;-30
2022/03/05 04:59:56;;;;;;;23.17;11.93;;;;;;;-0.29;100.00;102213.75;5063855;28;20135;-27
2022/03/05 05:02:24;;;;;;;27.55;12.00;;;;;;;-0.30;100.00;102217.53;5072228;28;20052;-31
2022/03/05 05:04:53;;;;;;;21.45;11.15;;;;;;;-0.30;100.00;102214.78;5071400;28;20076;-27
2022/03/05 05:07:21;;;;;;;26.88;12.40;;;;;;;-0.31;100.00;102213.09;5072056;28;20075;-28
2022/03/05 05:09:50;;;;;;;22.05;10.73;;;;;;;-0.31;100.00;102221.31;5070952;28;20056;-26
2022/03/05 05:12:18;;;;;;;19.55;9.45;;;;;;;-0.32;100.00;102219.59;5071412;28;20082;-27
2022/03/05 05:14:46;;;;;;;21.27;10.43;;;;;;;-0.33;100.00;102220.66;5071634;28;20052;-28
2022/03/05 05:17:13;;;;;;;24.10;11.68;;;;;;;-0.34;100.00;102222.53;5071354;28;20041;-31
2022/03/05 05:19:41;;;;;;;21.98;10.82;;;;;;;-0.36;100.00;102225.47;5071091;28;20489;-33
2022/03/05 05:22:09;;;;;;;26.00;12.25;;;;;;;-0.38;100.00;102224.81;5072081;28;20041;-31
2022/03/05 05:24:37;;;;;;;23.65;11.82;;;;;;;-0.40;100.00;102223.34;5072084;28;20114;-32
2022/03/05 05:27:07;;;;;;;26.20;12.68;;;;;;;-0.42;100.00;102226.28;5066986;28;20040;-30
2022/03/05 05:29:35;;;;;;;25.40;12.85;;;;;;;-0.44;100.00;102238.47;5071483;28;20058;-29
2022/03/05 05:32:10;;;;;;;26.80;12.50;;;;;;;-0.46;100.00;102232.34;5070654;28;20048;-30
2022/03/05 05:34:38;;;;;;;25.20;11.80;;;;;;;-0.49;100.00;102233.56;5071457;28;20048;-28
2022/03/05 05:37:13;;;;;;;24.23;11.63;;;;;;;-0.51;100.00;102241.13;5071048;28;20106;-29
2022/03/05 05:39:41;;;;;;;22.73;11.48;;;;;;;-0.53;100.00;102239.63;5071173;28;20457;-30
2022/03/05 05:42:11;;;;;;;26.23;11.85;;;;;;;-0.55;100.00;102237.06;5071376;28;20429;-29
2022/03/05 05:44:39;;;;;;;27.02;12.57;;;;;;;-0.56;100.00;102235.38;5071559;28;20044;-28
2022/03/05 05:47:08;;;;;;;20.98;10.30;;;;;;;-0.59;100.00;102233.00;5070709;28;20448;-32
2022/03/05 05:49:36;;;;;;;24.58;11.45;;;;;;;-0.59;100.00;102240.38;5069919;28;20103;-32
2022/03/05 05:52:05;;;;;;;27.75;14.10;;;;;;;-0.61;100.00;102240.59;5070638;28;20051;-31
2022/03/05 05:54:33;;;;;;;26.20;13.55;;;;;;;-0.61;100.00;102237.84;5068770;28;20044;-30
2022/03/05 05:57:01;;;;;;;23.38;11.98;;;;;;;-0.60;100.00;102236.78;5070860;28;20040;-31
2022/03/05 05:59:31;;;;;;;24.95;12.10;;;;;;;-0.61;100.00;102248.81;5071230;28;20040;-29
2022/03/05 06:02:00;;;;;;;29.35;12.23;;;;;;;-0.62;100.00;102244.38;5061500;28;20140;-34
2022/03/05 06:04:28;;;;;;;23.67;11.93;;;;;;;-0.61;100.00;102240.59;5070149;28;20511;-30
2022/03/05 06:06:56;;;;;;;25.05;12.10;;;;;;;-0.61;100.00;102243.34;5069858;28;20449;-29
2022/03/05 06:09:24;;;;;;;21.35;10.55;;;;;;;-0.62;100.00;102238.91;5069103;28;20052;-30
2022/03/05 06:11:51;;;;;;;22.20;11.40;;;;;;;-0.62;100.00;102238.91;5070504;28;20052;-32
2022/03/05 06:14:19;;;;;;;25.02;12.02;;;;;;;-0.61;100.00;102251.56;5069974;28;20040;-31
2022/03/05 06:16:48;;;;;;;23.40;11.40;;;;;;;-0.61;100.00;102254.31;5069220;28;20044;-28
2022/03/05 06:19:16;;;;;;;24.88;12.65;;;;;;;-0.62;100.00;102260.81;5057408;28;20075;-31
2022/03/05 06:21:44;;;;;;;23.30;12.05;;;;;;;-0.64;100.00;102251.94;5070194;28;20056;-30
2022/03/05 06:24:12;;;;;;;25.17;12.20;;;;;;;-0.63;100.00;102259.13;5068567;28;20037;-31
2022/03/05 06:26:39;;;;;;;23.40;10.43;;;;;;;-0.63;100.00;102261.88;5070902;28;20052;-29
2022/03/05 06:29:07;;;;;;;24.55;11.32;;;;;;;-0.64;100.00;102267.53;5073125;28;20053;-31
2022/03/05 06:31:35;;;;;;;24.42;11.27;;;;;;;-0.66;100.00;102264.97;5074310;28;20126;-28
2022/03/05 06:34:04;;;;;;;21.63;10.82;;;;;;;-0.65;100.00;102263.09;5073686;28;20499;-31
2022/03/05 06:36:32;;;;;;;26.08;12.45;;;;;;;-0.67;100.00;102260.53;5073178;28;20055;-30
2022/03/05 06:38:59;;;;;;;22.83;11.30;;;;;;;-0.66;100.00;102269.59;5073510;28;20048;-29
2022/03/05 06:41:27;;;;;;;21.35;10.73;;;;;;;-0.67;100.00;102274.25;5073762;28;20067;-31
2022/03/05 06:43:55;;;;;;;24.65;12.13;;;;;;;-0.66;100.00;102278.69;5073214;28;20060;-29
2022/03/05 06:46:23;;;;;;;24.25;11.52;;;;;;;-0.64;100.00;102276.59;5073664;28;20131;-30
2022/03/05 06:48:50;;;;;;;25.83;13.23;;;;;;;-0.62;100.00;102279.16;5073640;28;20451;-34
2022/03/05 06:51:19;;;;;;;26.55;12.68;;;;;;;-0.60;100.00;102283.38;5071327;28;20051;-28
2022/03/05 06:53:47;;;;;;;24.42;12.00;;;;;;;-0.56;100.00;102286.59;5073748;28;20048;-31
2022/03/05 06:56:15;;;;;;;23.85;11.40;;;;;;;-0.55;100.00;102285.56;5073458;28;20040;-31
2022/03/05 06:58:43;;;;;;;18.25;9.00;;;;;;;-0.54;100.00;102290.84;5071129;28;20755;-28
2022/03/05 07:01:10;;;;;;;22.90;11.13;;;;;;;-0.51;100.00;102292.38;5073131;28;20409;-25
2022/03/05 07:03:38;;;;;;;22.10;11.25;;;;;;;-0.51;100.00;102290.47;5073380;28;20049;-29
2022/03/05 07:06:06;;;;;;;22.90;11.43;;;;;;;-0.48;100.00;102295.59;5072567;28;20441;-34
2022/03/05 07:08:36;;;;;;;24.20;12.85;;;;;;;-0.44;100.00;102298.78;5073563;28;20623;-30
2022/03/05 07:11:04;;;;;;;21.38;10.27;;;;;;;-0.40;100.00;102294.63;5073238;28;20080;-28
2022/03/05 07:13:32;;;;;;;23.77;11.73;;;;;;;-0.36;100.00;102293.19;5072991;28;20208;-31
2022/03/05 07:16:00;;;;;;;27.02;12.10;;;;;;;-0.26;100.00;102296.50;5073206;28;20036;-29
2022/03/05 07:18:27;;;;;;;24.10;11.85;;;;;;;-0.06;100.00;102296.72;5072277;28;20626;-29
2022/03/05 07:20:57;;;;;;;21.65;11.25;;;;;;;0.24;100.00;102303.78;5071095;28;20074;-30
2022/03/05 07:23:24;;;;;;;25.33;12.65;;;;;;;0.59;100.00;102304.78;5062381;28;20044;-34
2022/03/05 07:25:54;;;;;;;26.70;12.20;;;;;;;0.97;100.00;102302.53;5072103;28;20075;-29
2022/03/05 07:28:22;;;;;;;27.15;12.32;;;;;;;1.31;100.00;102309.09;5073071;28;20045;-31
2022/03/05 07:30:49;;;;;;;24.17;12.18;;;;;;;1.72;100.00;102290.69;5072222;28;20044;-30
2022/03/05 07:33:17;;;;;;;25.05;12.38;;;;;;;2.12;100.00;102296.31;5068867;28;20131;-34
2022/03/05 07:35:45;;;;;;;26.65;12.52;;;;;;;2.47;100.00;102298.91;5072846;28;20048;-32
2022/03/05 07:38:13;;;;;;;23.02;11.90;;;;;;;3.00;100.00;102308.84;5071254;28;20448;-35
2022/03/05 07:40:41;;;;;;;25.95;12.18;;;;;;;3.41;100.00;102310.47;5072231;28;20044;-29
2022/03/05 07:43:12;;;;;;;26.48;12.48;;;;;;;3.77;100.00;102305.28;5072315;28;20404;-34
2022/03/05 07:45:40;;;;;;;22.90;11.07;;;;;;;4.12;100.00;102302.13;5072453;28;20091;-30
2022/03/05 07:48:08;;;;;;;23.75;11.40;;;;;;;4.57;100.00;102307.59;5071822;28;20063;-32
2022/03/05 07:50:36;;;;;;;19.17;11.15;;;;;;;4.80;100.00;102310.56;5064064;28;20501;-34
2022/03/05 07:53:03;;;;;;;21.50;10.80;;;;;;;5.20;100.00;102313.81;5073688;28;20057;-32
2022/03/05 07:55:31;;;;;;;23.77;12.20;;;;;;;5.60;100.00;102317.00;5072717;28;20048;-29
2022/03/05 07:57:59;;;;;;;21.83;11.00;;;;;;;5.94;100.00;102315.59;5073340;28;20051;-33
2022/03/05 08:00:28;;;;;;;21.08;10.85;;;;;;;6.05;100.00;102311.16;5072712;28;20033;-30
2022/03/05 08:02:56;;;;;;;20.52;10.93;;;;;;;6.21;99.58;102314.13;5073600;28;20076;-30
2022/03/05 08:05:24;;;;;;;19.45;10.82;;;;;;;6.40;96.79;102309.38;5073552;28;20054;-32
2022/03/05 08:07:54;;;;;;;16.90;9.82;;;;;;;6.59;96.08;102304.63;5061528;28;20130;-31
2022/03/05 08:10:22;;;;;;;19.58;10.85;;;;;;;6.89;94.17;102310.09;5073118;28;20044;-32
2022/03/05 08:12:49;;;;;;;18.75;10.48;;;;;;;7.14;90.33;102321.00;5073143;28;20048;-29
2022/03/05 08:15:17;;;;;;;20.08;10.93;;;;;;;7.05;86.70;102320.50;5072634;28;20421;-29
2022/03/05 08:17:55;;;;;;;19.75;10.38;;;;;;;6.97;85.50;102323.63;5069512;28;20063;-30
2022/03/05 08:20:24;;;;;;;17.00;9.65;;;;;;;7.12;86.00;102331.50;5062573;28;20424;-34
2022/03/05 08:22:53;;;;;;;18.48;10.75;;;;;;;7.29;84.58;102332.47;5071912;28;20719;-31
2022/03/05 08:25:21;;;;;;;18.52;10.32;;;;;;;7.55;83.86;102331.13;5073083;28;20390;-30
2022/03/05 08:27:50;;;;;;;19.75;10.80;;;;;;;7.94;82.75;102326.69;5072753;28;20045;-29
2022/03/05 08:30:19;;;;;;;21.40;10.95;;;;;;;8.15;78.25;102325.19;5072191;28;20041;-27
2022/03/05 08:32:47;;;;;;;18.80;11.18;;;;;;;8.19;78.00;102321.63;5071367;28;20087;-32
2022/03/05 08:35:16;;;;;;;17.95;10.50;;;;;;;8.56;79.05;102329.63;5073006;28;20048;-31
2022/03/05 08:37:45;;;;;;;19.52;10.73;;;;;;;9.03;77.86;102330.16;5072391;28;20519;-27
2022/03/05 08:40:13;;;;;;;19.38;10.25;;;;;;;9.52;75.06;102333.19;5072753;28;20041;-34
2022/03/05 08:42:42;;;;;;;19.55;11.27;;;;;;;9.57;71.40;102339.69;5071972;28;20048;-29
2022/03/05 08:45:11;;;;;;;17.20;10.25;;;;;;;9.73;71.62;102337.94;5072522;28;20140;-28
2022/03/05 08:47:39;;;;;;;20.50;10.70;;;;;;;9.53;68.29;102343.22;5072594;28;20040;-28
2022/03/05 08:50:08;;;;;;;18.40;11.20;;;;;;;9.37;67.79;102347.72;5071073;28;20079;-35
2022/03/05 08:52:38;;;;;;;17.25;10.27;;;;;;;9.12;67.39;102347.31;5072244;28;20497;-33
2022/03/05 08:55:07;;;;;;;18.88;10.85;;;;;;;8.55;67.04;102342.72;5072494;28;20044;-33
2022/03/05 08:57:35;;;;;;;17.40;10.35;;;;;;;8.37;69.21;102342.91;5071590;28;20056;-30
2022/03/05 09:00:05;;;;;;;18.25;10.73;;;;;;;8.38;69.86;102338.19;5072217;28;20036;-31
2022/03/05 09:02:33;;;;;;;19.50;10.88;;;;;;;8.67;70.43;102339.84;5070780;28;20056;-30
2022/03/05 09:05:01;;;;;;;19.98;11.00;;;;;;;9.26;70.38;102343.94;5071645;28;20048;-30
2022/03/05 09:07:29;;;;;;;17.88;10.10;;;;;;;9.88;67.67;102338.16;5072125;28;20040;-32
2022/03/05 09:09:58;;;;;;;18.48;11.52;;;;;;;10.14;66.80;102341.28;5072095;28;20370;-31
2022/03/05 09:12:26;;;;;;;19.65;11.13;;;;;;;10.34;64.58;102336.81;5071357;28;20054;-39
2022/03/05 09:14:53;;;;;;;20.77;11.68;;;;;;;10.73;63.40;102342.25;5071541;28;20054;-32
2022/03/05 09:17:21;;;;;;;19.27;10.20;;;;;;;10.90;61.99;102334.59;5071427;28;20056;-31
2022/03/05 09:19:49;;;;;;;19.63;11.05;;;;;;;11.20;60.08;102339.56;5071248;28;20048;-28
2022/03/05 09:22:17;;;;;;;17.52;10.85;;;;;;;11.29;59.33;102337.97;5071932;28;20048;-33
2022/03/05 09:24:45;;;;;;;18.20;10.50;;;;;;;11.11;57.45;102338.41;5070830;28;20046;-32
2022/03/05 09:27:14;;;;;;;20.33;11.90;;;;;;;10.87;56.47;102337.91;5071978;28;20094;-35
2022/03/05 09:29:42;;;;;;;19.65;10.88;;;;;;;10.61;58.41;102336.81;5071267;28;20052;-28
2022/03/05 09:32:10;;;;;;;19.08;10.95;;;;;;;10.67;59.22;102337.72;5071157;28;20048;-32
2022/03/05 09:34:38;;;;;;;18.45;11.43;;;;;;;10.54;58.48;102338.97;5071707;28;20074;-31
2022/03/05 09:37:06;;;;;;;21.13;12.43;;;;;;;10.49;58.03;102340.88;5071517;28;20430;-28
2022/03/05 09:39:35;;;;;;;19.25;11.45;;;;;;;10.59;57.03;102341.81;5070373;28;20230;-30
2022/03/05 09:42:05;;;;;;;18.55;10.85;;;;;;;10.54;56.60;102340.94;5071078;28;20041;-31
2022/03/05 09:44:38;;;;;;;17.48;10.82;;;;;;;10.21;57.41;102344.72;5071663;28;20465;-31
2022/03/05 09:47:07;;;;;;;18.70;11.10;;;;;;;10.16;58.13;102341.84;5070208;28;20413;-32
2022/03/05 09:49:38;;;;;;;20.55;11.70;;;;;;;10.25;58.09;102340.31;5062697;28;20044;-33
2022/03/05 09:52:07;;;;;;;22.30;11.82;;;;;;;10.44;56.51;102333.28;5071508;28;20051;-31
2022/03/05 09:54:35;;;;;;;19.88;11.80;;;;;;;10.60;57.28;102340.69;5070044;28;20095;-29
2022/03/05 09:57:09;;;;;;;20.88;12.95;;;;;;;10.65;56.61;102339.91;5071600;28;20135;-31
2022/03/05 09:59:38;;;;;;;18.27;11.35;;;;;;;10.85;57.15;102333.69;5071728;28;20056;-30
2022/03/05 10:02:07;;;;;;;20.00;12.02;;;;;;;11.19;56.78;102339.88;5070204;28;20040;-31
2022/03/05 10:04:35;;;;;;;22.60;12.57;;;;;;;11.21;54.51;102344.06;5071433;28;20058;-31
2022/03/05 10:07:07;;;;;;;21.30;13.55;;;;;;;10.97;53.74;102343.59;5070572;28;20586;-29
2022/03/05 10:09:35;;;;;;;20.05;11.02;;;;;;;10.70;55.22;102349.19;5071298;28;20405;-32
2022/03/05 10:12:25;;;;;;;19.60;11.77;;;;;;;10.99;55.41;102341.34;5071256;28;20052;-31
2022/03/05 10:15:09;;;;;;;20.85;12.15;;;;;;;10.88;52.29;102335.97;5070721;28;20135;-31
2022/03/05 10:17:52;;;;;;;19.58;12.25;;;;;;;10.83;53.89;102344.28;5071253;28;20472;-30
2022/03/05 10:20:21;;;;;;;22.15;12.73;;;;;;;10.78;54.87;102338.66;5071338;28;20143;-31
2022/03/05 10:22:58;;;;;;;23.63;12.98;;;;;;;10.85;54.51;102342.91;5070424;28;20060;-29
2022/03/05 10:25:39;;;;;;;21.40;12.18;;;;;;;10.91;52.76;102338.22;5071080;28;20106;-31
2022/03/05 10:28:15;;;;;;;20.35;12.57;;;;;;;10.88;54.94;102336.81;5071035;28;20048;-31
2022/03/05 10:30:46;;;;;;;21.95;12.48;;;;;;;11.29;54.82;102340.78;5070936;28;20040;-31
2022/03/05 10:33:26;;;;;;;22.77;13.30;;;;;;;11.63;53.15;102332.88;5071243;28;20063;-33
2022/03/05 10:35:54;;;;;;;24.08;13.95;;;;;;;11.90;52.91;102338.41;5070393;28;20424;-32
2022/03/05 10:38:22;;;;;;;22.33;13.13;;;;;;;11.91;51.56;102337.28;5070707;28;20057;-36
2022/03/05 10:40:55;;;;;;;24.08;13.80;;;;;;;11.87;50.20;102338.94;5071124;28;20045;-33
2022/03/05 10:43:23;;;;;;;21.88;12.65;;;;;;;11.77;51.65;102335.25;5070316;28;20047;-37
2022/03/05 10:45:55;;;;;;;22.17;12.65;;;;;;;11.80;51.38;102337.50;5071046;28;20040;-37
2022/03/05 10:48:28;;;;;;;25.20;13.57;;;;;;;11.95;51.37;102338.44;5071378;28;20064;-33
2022/03/05 10:51:01;;;;;;;23.60;13.48;;;;;;;12.13;50.75;102334.31;5070184;28;20036;-32
2022/03/05 10:53:36;;;;;;;19.60;12.00;;;;;;;12.14;50.50;102337.94;5060820;28;20044;-34
2022/03/05 10:56:24;;;;;;;19.67;11.88;;;;;;;12.37;49.88;102335.53;5071030;28;20041;-34
2022/03/05 10:59:04;;;;;;;19.95;11.65;;;;;;;12.43;50.08;102345.59;5062400;28;20040;-34
2022/03/05 11:01:34;;;;;;;23.27;13.27;;;;;;;12.47;49.51;102345.91;5070817;28;20053;-30
2022/03/05 11:04:02;;;;;;;23.42;13.77;;;;;;;12.55;49.28;102342.56;5070045;28;20075;-31
2022/03/05 11:06:31;;;;;;;22.30;13.85;;;;;;;12.20;48.44;102343.28;5070860;28;20049;-29
2022/03/05 11:09:00;;;;;;;24.52;14.20;;;;;;;11.72;49.44;102339.66;5070869;28;20043;-29
2022/03/05 11:11:28;;;;;;;24.63;13.68;;;;;;;11.44;50.57;102337.25;5070005;28;20078;-35
2022/03/05 11:13:56;;;;;;;23.42;13.65;;;;;;;11.47;51.01;102331.13;5071988;28;20048;-31
2022/03/05 11:16:25;;;;;;;24.35;13.45;;;;;;;11.58;50.89;102341.28;5074522;28;20055;-31